Time;durP1;ratioP1;P1;durP2;ratioP2;P2;SDS_P1;SDS_P2;PMS_P1;PMS_P2;Temp;Humidity;BMP_temperature;BMP_pressure;BME280_temperature;BME280_humidity;BME280_pressure;Samples;Min_cycle;Max_cycle;Signal;HPM_P1;HPM_P2
2022/10/02 00:01:35;;;;;;;;;;;15.40;98.00;;;;;;4992239;28;19909;-27
2022/10/02 00:04:01;;;;;;;;;;;15.40;98.00;;;;;;4992192;28;19932;-27
2022/10/02 00:06:32;;;;;;;;;;;15.40;98.00;;;;;;4992070;28;19914;-27
2022/10/02 00:08:59;;;;;;;;;;;15.30;98.10;;;;;;4993195;28;19984;-27
2022/10/02 00:11:40;;;;;;;;;;;15.40;98.10;;;;;;4996079;28;20393;-27
2022/10/02 00:14:09;;;;;;;;;;;15.40;98.10;;;;;;4996024;28;19909;-27
2022/10/02 00:16:49;;;;;;;;;;;15.30;98.00;;;;;;4994565;28;20027;-27
2022/10/02 00:19:15;;;;;;;;;;;15.40;98.10;;;;;;4995675;28;20000;-27
2022/10/02 00:21:55;;;;;;;;;;;15.40;98.10;;;;;;4995776;28;19910;-27
2022/10/02 00:24:23;;;;;;;;;;;15.40;98.10;;;;;;4995951;28;19910;-27
2022/10/02 00:26:53;;;;;;;;;;;15.40;98.10;;;;;;4995717;28;19905;-27
2022/10/02 00:29:20;;;;;;;;;;;15.40;98.10;;;;;;4995641;28;19959;-27
2022/10/02 00:32:11;;;;;;;;;;;15.40;98.10;;;;;;4995578;28;20315;-27
2022/10/02 00:34:56;;;;;;;;;;;15.40;98.10;;;;;;4991691;28;19909;-27
2022/10/02 00:37:24;;;;;;;;;;;15.40;98.20;;;;;;4995590;28;19921;-27
2022/10/02 00:40:05;;;;;;;;;;;15.40;98.20;;;;;;4995228;28;19909;-27
2022/10/02 00:42:43;;;;;;;;;;;15.40;98.20;;;;;;4995562;28;20350;-27
2022/10/02 00:45:14;;;;;;;;;;;15.40;98.20;;;;;;4995469;28;19996;-27
2022/10/02 00:47:40;;;;;;;;;;;15.40;98.20;;;;;;4995361;28;19961;-27
2022/10/02 00:50:30;;;;;;;;;;;15.40;98.20;;;;;;4995189;28;19905;-27
2022/10/02 00:53:04;;;;;;;;;;;15.30;98.20;;;;;;4995307;28;19989;-27
2022/10/02 00:55:33;;;;;;;;;;;15.30;98.20;;;;;;4995230;28;19960;-27
2022/10/02 00:58:27;;;;;;;;;;;15.40;98.20;;;;;;4995270;28;20267;-27
2022/10/02 01:01:06;;;;;;;;;;;15.30;98.20;;;;;;4982015;28;19914;-27
2022/10/02 01:03:35;;;;;;;;;;;15.30;98.20;;;;;;4995156;28;19949;-27
2022/10/02 01:06:00;;;;;;;;;;;15.30;98.20;;;;;;5026972;22;19936;-25
2022/10/02 01:08:26;;;;;;;;;;;15.30;98.20;;;;;;5014800;28;19905;-24
2022/10/02 01:10:52;;;;;;;;;;;15.30;98.20;;;;;;5015670;28;19917;-24
2022/10/02 01:13:18;;;;;;;;;;;15.30;98.20;;;;;;5014764;28;19905;-24
2022/10/02 01:15:48;;;;;;;;;;;15.30;98.20;;;;;;5015060;28;19992;-24
2022/10/02 01:18:14;;;;;;;;;;;15.40;98.20;;;;;;5019478;28;19909;-24
2022/10/02 01:20:42;;;;;;;;;;;15.40;98.20;;;;;;5020050;28;19921;-24
2022/10/02 01:23:19;;;;;;;;;;;15.40;98.20;;;;;;5017438;28;20398;-24
2022/10/02 01:25:45;;;;;;;;;;;15.40;98.20;;;;;;5015620;28;19948;-24
2022/10/02 01:28:11;;;;;;;;;;;15.40;98.30;;;;;;5014464;28;19952;-24
2022/10/02 01:30:38;;;;;;;;;;;15.30;98.30;;;;;;5019982;28;19906;-25
2022/10/02 01:33:04;;;;;;;;;;;15.30;98.20;;;;;;5020237;28;19944;-24
2022/10/02 01:35:32;;;;;;;;;;;15.40;98.30;;;;;;5016548;28;20394;-25
2022/10/02 01:38:00;;;;;;;;;;;15.40;98.30;;;;;;5015520;28;20370;-24
2022/10/02 01:40:26;;;;;;;;;;;15.40;98.30;;;;;;5013816;28;19909;-25
2022/10/02 01:42:52;;;;;;;;;;;15.30;98.30;;;;;;5014311;28;20005;-25
2022/10/02 01:45:21;;;;;;;;;;;15.30;98.30;;;;;;5014828;28;19936;-24
2022/10/02 01:47:53;;;;;;;;;;;15.30;98.40;;;;;;5014610;28;19952;-24
2022/10/02 01:50:28;;;;;;;;;;;15.30;98.30;;;;;;5014682;28;19963;-25
2022/10/02 01:53:02;;;;;;;;;;;15.40;98.40;;;;;;5014691;28;19945;-24
2022/10/02 01:55:37;;;;;;;;;;;15.30;98.40;;;;;;5015307;28;20298;-25
2022/10/02 01:58:08;;;;;;;;;;;15.40;98.40;;;;;;5014589;28;19906;-25
2022/10/02 02:00:43;;;;;;;;;;;15.30;98.40;;;;;;5014426;28;19910;-25
2022/10/02 02:03:15;;;;;;;;;;;15.30;98.40;;;;;;5013876;28;20370;-24
2022/10/02 02:05:59;;;;;;;;;;;15.30;98.40;;;;;;5012793;28;19917;-25
2022/10/02 02:08:28;;;;;;;;;;;15.30;98.40;;;;;;5013649;28;19905;-25
2022/10/02 02:11:02;;;;;;;;;;;15.30;98.40;;;;;;5012226;28;19906;-25
2022/10/02 02:13:43;;;;;;;;;;;15.30;98.40;;;;;;5014066;28;19905;-24
2022/10/02 02:16:30;;;;;;;;;;;15.30;98.40;;;;;;5014006;28;19913;-24
2022/10/02 02:19:22;;;;;;;;;;;15.30;98.40;;;;;;5011755;28;20281;-25
2022/10/02 02:21:49;;;;;;;;;;;15.30;98.50;;;;;;5005531;28;19909;-24
2022/10/02 02:24:30;;;;;;;;;;;15.30;98.40;;;;;;5016104;28;19906;-24
2022/10/02 02:26:57;;;;;;;;;;;15.30;98.40;;;;;;5014272;28;19906;-25
2022/10/02 02:29:25;;;;;;;;;;;15.30;98.40;;;;;;5013461;28;19931;-25
2022/10/02 02:31:51;;;;;;;;;;;15.30;98.40;;;;;;5013222;28;19987;-24
2022/10/02 02:34:22;;;;;;;;;;;15.30;98.40;;;;;;5013863;28;19909;-25
2022/10/02 02:36:50;;;;;;;;;;;15.30;98.40;;;;;;5013544;28;19905;-25
2022/10/02 02:39:18;;;;;;;;;;;15.30;98.50;;;;;;5013201;28;19909;-25
2022/10/02 02:41:50;;;;;;;;;;;15.40;98.50;;;;;;5013374;28;19909;-25
2022/10/02 02:44:19;;;;;;;;;;;15.30;98.40;;;;;;5012242;28;19912;-24
2022/10/02 02:47:02;;;;;;;;;;;15.30;98.50;;;;;;5012945;28;19905;-24
2022/10/02 02:49:30;;;;;;;;;;;15.40;98.50;;;;;;5012553;28;19905;-25
2022/10/02 02:51:58;;;;;;;;;;;15.30;98.40;;;;;;5013086;28;19905;-25
2022/10/02 02:54:52;;;;;;;;;;;15.30;98.40;;;;;;5012993;28;19905;-25
2022/10/02 02:57:20;;;;;;;;;;;15.30;98.50;;;;;;5012425;28;20008;-25
2022/10/02 02:59:48;;;;;;;;;;;15.30;98.50;;;;;;5011768;28;19910;-25
2022/10/02 03:02:14;;;;;;;;;;;15.30;98.50;;;;;;5013707;28;20004;-25
2022/10/02 03:04:39;;;;;;;;;;;15.30;98.50;;;;;;5013452;28;19947;-25
2022/10/02 03:07:09;;;;;;;;;;;15.30;98.50;;;;;;5012654;28;19992;-25
2022/10/02 03:09:36;;;;;;;;;;;15.30;98.50;;;;;;5013262;28;19916;-25
2022/10/02 03:12:08;;;;;;;;;;;15.30;98.50;;;;;;5012532;28;20362;-25
2022/10/02 03:14:36;;;;;;;;;;;15.30;98.50;;;;;;5012514;28;19905;-25
2022/10/02 03:17:20;;;;;;;;;;;15.30;98.50;;;;;;5012354;28;19955;-25
2022/10/02 03:19:46;;;;;;;;;;;15.30;98.90;;;;;;5012297;28;19936;-25
2022/10/02 03:22:17;;;;;;;;;;;15.30;98.50;;;;;;5012639;28;20290;-24
2022/10/02 03:24:42;;;;;;;;;;;15.30;98.50;;;;;;5012681;28;19906;-25
2022/10/02 03:27:12;;;;;;;;;;;15.30;98.50;;;;;;5011041;28;19909;-25
2022/10/02 03:29:38;;;;;;;;;;;15.30;98.50;;;;;;5012212;28;20003;-24
2022/10/02 03:32:04;;;;;;;;;;;15.30;98.50;;;;;;5012577;28;19948;-24
2022/10/02 03:34:34;;;;;;;;;;;15.30;98.50;;;;;;5012598;28;19951;-25
2022/10/02 03:36:59;;;;;;;;;;;15.30;98.50;;;;;;5012617;28;19905;-24
2022/10/02 03:39:25;;;;;;;;;;;15.30;98.50;;;;;;5012630;28;20437;-24
2022/10/02 03:41:50;;;;;;;;;;;15.30;98.50;;;;;;5012117;28;19919;-25
2022/10/02 03:44:16;;;;;;;;;;;15.30;98.50;;;;;;5015931;28;19996;-25
2022/10/02 03:46:41;;;;;;;;;;;15.30;98.50;;;;;;5018751;28;19928;-25
2022/10/02 03:49:07;;;;;;;;;;;15.30;98.50;;;;;;5018545;28;19914;-25
2022/10/02 03:51:32;;;;;;;;;;;15.30;98.60;;;;;;5019235;28;20008;-25
2022/10/02 03:53:58;;;;;;;;;;;15.30;98.60;;;;;;5018696;28;19905;-25
2022/10/02 03:56:39;;;;;;;;;;;15.30;98.60;;;;;;5018947;28;19957;-24
2022/10/02 03:59:09;;;;;;;;;;;15.30;98.60;;;;;;5018349;28;19905;-25
2022/10/02 04:01:37;;;;;;;;;;;15.30;98.60;;;;;;5018459;28;19912;-25
2022/10/02 04:04:13;;;;;;;;;;;15.30;98.60;;;;;;5019340;28;19910;-24
2022/10/02 04:06:39;;;;;;;;;;;15.30;98.60;;;;;;5018435;28;19918;-24
2022/10/02 04:09:10;;;;;;;;;;;15.30;98.50;;;;;;5018810;28;19913;-24
2022/10/02 04:11:56;;;;;;;;;;;15.30;98.50;;;;;;5018920;28;20279;-25
2022/10/02 04:14:27;;;;;;;;;;;15.30;98.50;;;;;;5018543;28;19909;-25
2022/10/02 04:17:01;;;;;;;;;;;15.30;98.50;;;;;;5018647;28;19905;-24
2022/10/02 04:19:35;;;;;;;;;;;15.30;98.50;;;;;;5016971;28;19909;-25
2022/10/02 04:22:05;;;;;;;;;;;15.30;98.50;;;;;;5018408;28;19912;-24
2022/10/02 04:24:33;;;;;;;;;;;15.30;98.50;;;;;;5018344;28;19916;-25
2022/10/02 04:27:20;;;;;;;;;;;15.30;98.90;;;;;;5018533;28;19909;-25
2022/10/02 04:29:58;;;;;;;;;;;15.30;98.60;;;;;;5018783;28;19912;-25
2022/10/02 04:32:31;;;;;;;;;;;15.30;98.50;;;;;;5018528;28;19999;-24
2022/10/02 04:34:57;;;;;;;;;;;15.30;98.60;;;;;;5018611;28;19913;-24
2022/10/02 04:37:42;;;;;;;;;;;15.30;98.60;;;;;;5021590;28;20425;-24
2022/10/02 04:40:13;;;;;;;;;;;15.30;98.60;;;;;;5024703;28;19913;-24
2022/10/02 04:42:59;;;;;;;;;;;15.30;98.60;;;;;;5019221;28;19982;-25
2022/10/02 04:45:34;;;;;;;;;;;15.30;98.60;;;;;;5017392;28;19912;-25
2022/10/02 04:48:02;;;;;;;;;;;15.30;98.60;;;;;;5018239;28;20000;-24
2022/10/02 04:50:46;;;;;;;;;;;15.30;98.60;;;;;;5017896;28;19909;-24
2022/10/02 04:53:18;;;;;;;;;;;15.30;98.60;;;;;;5018167;28;19916;-24
2022/10/02 04:56:05;;;;;;;;;;;15.30;98.70;;;;;;5015594;28;20424;-24
2022/10/02 04:58:41;;;;;;;;;;;15.30;98.60;;;;;;5014809;28;19913;-24
2022/10/02 05:01:17;;;;;;;;;;;15.30;98.60;;;;;;5015030;28;19913;-24
2022/10/02 05:03:58;;;;;;;;;;;15.30;98.60;;;;;;5015338;28;20362;-24
2022/10/02 05:06:35;;;;;;;;;;;15.30;98.60;;;;;;5014657;28;19939;-24
2022/10/02 05:09:13;;;;;;;;;;;15.30;98.60;;;;;;5015207;28;20263;-24
2022/10/02 05:11:38;;;;;;;;;;;15.30;98.60;;;;;;5014701;28;19905;-24
2022/10/02 05:14:07;;;;;;;;;;;15.30;98.60;;;;;;5017329;28;20328;-24
2022/10/02 05:17:11;;;;;;;;;;;15.30;98.60;;;;;;5015078;28;20040;-24
2022/10/02 05:19:56;;;;;;;;;;;15.30;98.60;;;;;;4992883;28;19957;-24
2022/10/02 05:22:27;;;;;;;;;;;15.30;98.70;;;;;;5008763;28;19905;-24
2022/10/02 05:25:11;;;;;;;;;;;15.30;98.70;;;;;;5014743;28;19955;-24
2022/10/02 05:27:42;;;;;;;;;;;15.30;98.70;;;;;;5014714;28;20363;-24
2022/10/02 05:30:12;;;;;;;;;;;15.30;98.70;;;;;;5014299;28;19909;-25
2022/10/02 05:32:38;;;;;;;;;;;15.30;98.70;;;;;;5016080;28;19909;-25
2022/10/02 05:35:22;;;;;;;;;;;15.30;98.70;;;;;;5015299;28;20421;-25
2022/10/02 05:38:06;;;;;;;;;;;15.30;98.70;;;;;;5015575;28;19905;-24
2022/10/02 05:40:34;;;;;;;;;;;15.30;98.70;;;;;;5014332;28;20448;-24
2022/10/02 05:43:03;;;;;;;;;;;15.30;98.70;;;;;;5014862;28;19944;-24
2022/10/02 05:45:30;;;;;;;;;;;15.30;98.70;;;;;;5014112;28;19905;-24
2022/10/02 05:48:05;;;;;;;;;;;15.30;98.70;;;;;;5013986;28;20351;-25
2022/10/02 05:50:32;;;;;;;;;;;15.30;98.70;;;;;;5012444;28;20000;-25
2022/10/02 05:53:18;;;;;;;;;;;15.30;98.70;;;;;;5013825;28;19912;-25
2022/10/02 05:56:04;;;;;;;;;;;15.30;98.70;;;;;;5014310;28;19917;-25
2022/10/02 05:58:33;;;;;;;;;;;15.30;98.70;;;;;;5013833;28;19916;-25
2022/10/02 06:00:59;;;;;;;;;;;15.30;98.70;;;;;;5014391;28;19909;-25
2022/10/02 06:03:30;;;;;;;;;;;15.20;98.70;;;;;;5014683;28;19909;-25
2022/10/02 06:06:10;;;;;;;;;;;15.30;98.80;;;;;;5014003;28;19927;-25
2022/10/02 06:08:40;;;;;;;;;;;15.30;98.70;;;;;;5015069;28;20008;-25
2022/10/02 06:11:25;;;;;;;;;;;15.20;98.70;;;;;;5013696;28;19909;-25
2022/10/02 06:13:59;;;;;;;;;;;15.30;98.80;;;;;;5002537;28;19913;-25
2022/10/02 06:16:24;;;;;;;;;;;15.30;98.80;;;;;;5013567;28;19906;-24
2022/10/02 06:18:54;;;;;;;;;;;15.30;98.70;;;;;;5013357;28;19913;-24
2022/10/02 06:21:37;;;;;;;;;;;15.30;98.80;;;;;;5013170;28;20408;-25
2022/10/02 06:24:04;;;;;;;;;;;15.30;98.80;;;;;;5013140;28;20398;-25
2022/10/02 06:26:38;;;;;;;;;;;15.30;98.70;;;;;;5013297;28;20348;-25
2022/10/02 06:29:33;;;;;;;;;;;15.30;98.80;;;;;;5013036;28;19906;-25
2022/10/02 06:31:59;;;;;;;;;;;15.30;98.80;;;;;;5008459;28;19944;-25
2022/10/02 06:34:25;;;;;;;;;;;15.30;98.80;;;;;;5013054;28;19945;-24
2022/10/02 06:37:07;;;;;;;;;;;15.30;98.80;;;;;;5011744;28;19905;-25
2022/10/02 06:39:52;;;;;;;;;;;15.30;98.80;;;;;;5012996;28;20000;-25
2022/10/02 06:42:24;;;;;;;;;;;15.30;98.80;;;;;;5001834;28;19913;-25
2022/10/02 06:44:58;;;;;;;;;;;15.30;98.80;;;;;;5012793;28;19906;-25
2022/10/02 06:47:24;;;;;;;;;;;15.30;98.90;;;;;;5013807;28;20358;-25
2022/10/02 06:49:49;;;;;;;;;;;15.30;98.90;;;;;;5012841;28;20382;-25
2022/10/02 06:52:18;;;;;;;;;;;15.30;98.80;;;;;;5012783;28;19940;-25
2022/10/02 06:54:43;;;;;;;;;;;15.20;98.80;;;;;;5012835;28;20244;-25
2022/10/02 06:57:12;;;;;;;;;;;15.20;98.80;;;;;;5012718;28;19905;-25
2022/10/02 06:59:50;;;;;;;;;;;15.20;98.90;;;;;;5012406;28;19920;-24
2022/10/02 07:02:29;;;;;;;;;;;15.20;98.90;;;;;;5012609;28;19913;-25
2022/10/02 07:04:55;;;;;;;;;;;15.20;98.90;;;;;;5012788;28;19966;-24
2022/10/02 07:07:39;;;;;;;;;;;15.20;98.90;;;;;;5012892;28;20324;-24
2022/10/02 07:10:16;;;;;;;;;;;15.20;98.90;;;;;;5012399;28;19912;-25
2022/10/02 07:12:45;;;;;;;;;;;15.20;98.90;;;;;;5012621;28;19905;-25
2022/10/02 07:15:28;;;;;;;;;;;15.30;98.90;;;;;;5012538;28;19906;-24
2022/10/02 07:18:05;;;;;;;;;;;15.20;98.90;;;;;;5012145;28;19909;-24
2022/10/02 07:20:51;;;;;;;;;;;15.20;98.90;;;;;;5012020;28;20393;-25
2022/10/02 07:23:28;;;;;;;;;;;15.20;98.90;;;;;;5012107;28;19952;-25
2022/10/02 07:25:59;;;;;;;;;;;15.20;98.90;;;;;;5012212;28;20001;-24
2022/10/02 07:28:38;;;;;;;;;;;15.20;98.90;;;;;;5012021;28;19967;-24
2022/10/02 07:31:13;;;;;;;;;;;15.20;98.90;;;;;;5012270;28;19905;-25
2022/10/02 07:33:39;;;;;;;;;;;15.30;98.90;;;;;;5012413;28;19909;-25
2022/10/02 07:36:10;;;;;;;;;;;15.20;98.90;;;;;;5012264;28;20216;-24
2022/10/02 07:38:42;;;;;;;;;;;15.20;98.90;;;;;;5012073;28;19905;-24
2022/10/02 07:41:19;;;;;;;;;;;15.30;98.90;;;;;;5011987;28;20294;-24
2022/10/02 07:44:03;;;;;;;;;;;15.30;98.90;;;;;;5015147;28;19916;-24
2022/10/02 07:46:32;;;;;;;;;;;15.30;98.90;;;;;;5017678;28;19906;-24
2022/10/02 07:49:16;;;;;;;;;;;15.20;98.90;;;;;;5011466;28;19906;-25
2022/10/02 07:51:45;;;;;;;;;;;15.30;98.90;;;;;;5012315;28;19958;-24
2022/10/02 07:54:20;;;;;;;;;;;15.20;98.90;;;;;;5012657;28;19909;-24
2022/10/02 07:56:47;;;;;;;;;;;15.20;98.90;;;;;;5012486;28;20216;-24
2022/10/02 07:59:15;;;;;;;;;;;15.20;98.90;;;;;;5010681;28;19905;-24
2022/10/02 08:01:41;;;;;;;;;;;15.20;99.00;;;;;;5011944;28;20043;-25
2022/10/02 08:04:25;;;;;;;;;;;15.30;99.00;;;;;;5011835;28;19909;-24
2022/10/02 08:06:56;;;;;;;;;;;15.30;99.00;;;;;;5011819;28;19920;-25
2022/10/02 08:09:25;;;;;;;;;;;15.30;99.00;;;;;;5012088;28;20275;-25
2022/10/02 08:12:11;;;;;;;;;;;15.20;98.90;;;;;;5010669;28;20010;-25
2022/10/02 08:14:41;;;;;;;;;;;15.30;98.90;;;;;;5011806;28;20375;-24
2022/10/02 08:17:13;;;;;;;;;;;15.30;98.90;;;;;;5011941;28;19909;-25
2022/10/02 08:19:44;;;;;;;;;;;15.30;98.90;;;;;;5011735;28;19916;-24
2022/10/02 08:22:16;;;;;;;;;;;15.30;98.90;;;;;;5011665;28;19951;-24
2022/10/02 08:24:44;;;;;;;;;;;15.30;98.90;;;;;;5011628;28;20358;-24
2022/10/02 08:27:32;;;;;;;;;;;15.40;98.80;;;;;;5011590;28;19996;-25
2022/10/02 08:30:03;;;;;;;;;;;15.30;98.80;;;;;;5011654;28;20263;-24
2022/10/02 08:32:32;;;;;;;;;;;15.30;98.80;;;;;;5015285;28;19909;-24
2022/10/02 08:34:59;;;;;;;;;;;15.40;99.80;;;;;;5015512;28;20000;-25
2022/10/02 08:37:43;;;;;;;;;;;15.30;99.90;;;;;;5015252;28;19912;-24
2022/10/02 08:40:12;;;;;;;;;;;15.40;99.90;;;;;;5014923;28;19916;-24
2022/10/02 08:42:54;;;;;;;;;;;15.40;99.90;;;;;;5015207;28;20457;-24
2022/10/02 08:45:38;;;;;;;;;;;15.40;99.90;;;;;;5015164;28;19909;-24
2022/10/02 08:48:09;;;;;;;;;;;15.40;99.90;;;;;;5015124;28;20210;-24
2022/10/02 08:50:55;;;;;;;;;;;15.40;99.90;;;;;;5015099;28;19913;-24
2022/10/02 08:53:39;;;;;;;;;;;15.40;99.90;;;;;;5015194;28;19905;-24
2022/10/02 08:56:16;;;;;;;;;;;15.40;99.90;;;;;;5015182;28;19912;-24
2022/10/02 08:58:42;;;;;;;;;;;15.40;99.90;;;;;;5014929;28;19905;-24
2022/10/02 09:01:27;;;;;;;;;;;15.50;99.90;;;;;;5014760;28;19910;-24
2022/10/02 09:04:09;;;;;;;;;;;15.50;99.90;;;;;;5017730;28;20140;-24
2022/10/02 09:06:53;;;;;;;;;;;15.50;99.90;;;;;;5020162;28;19968;-24
2022/10/02 09:09:22;;;;;;;;;;;15.50;99.90;;;;;;5017721;28;19960;-24
2022/10/02 09:12:00;;;;;;;;;;;15.50;99.90;;;;;;5014567;28;19906;-25
2022/10/02 09:14:33;;;;;;;;;;;15.60;99.90;;;;;;5015497;28;19905;-25
2022/10/02 09:17:04;;;;;;;;;;;15.60;99.90;;;;;;5014493;28;19909;-25
2022/10/02 09:19:30;;;;;;;;;;;15.60;99.90;;;;;;5015114;28;20078;-24
2022/10/02 09:22:06;;;;;;;;;;;15.70;99.90;;;;;;5013440;28;20390;-24
2022/10/02 09:24:50;;;;;;;;;;;15.70;99.80;;;;;;5013628;28;20009;-24
2022/10/02 09:27:34;;;;;;;;;;;15.70;99.80;;;;;;5014291;28;19916;-24
2022/10/02 09:30:14;;;;;;;;;;;15.80;99.80;;;;;;5014197;28;19912;-24
2022/10/02 09:32:42;;;;;;;;;;;15.80;99.70;;;;;;5014536;28;19906;-24
2022/10/02 09:35:13;;;;;;;;;;;15.80;99.60;;;;;;5014105;28;19963;-24
2022/10/02 09:37:50;;;;;;;;;;;15.90;99.60;;;;;;5014159;28;19909;-24
2022/10/02 09:40:24;;;;;;;;;;;15.90;99.60;;;;;;5013975;28;20032;-24
2022/10/02 09:42:55;;;;;;;;;;;15.90;99.50;;;;;;5013691;28;19963;-24
2022/10/02 09:45:27;;;;;;;;;;;15.90;99.60;;;;;;5013910;28;20036;-24
2022/10/02 09:48:14;;;;;;;;;;;15.90;99.60;;;;;;5014020;28;19916;-24
2022/10/02 09:50:39;;;;;;;;;;;15.90;99.60;;;;;;5014094;28;19905;-25
2022/10/02 09:53:23;;;;;;;;;;;15.90;99.70;;;;;;5013869;28;20381;-25
2022/10/02 09:56:01;;;;;;;;;;;15.90;99.70;;;;;;5013789;28;20389;-24
2022/10/02 09:58:45;;;;;;;;;;;15.90;99.70;;;;;;5013729;28;20294;-24
2022/10/02 10:01:20;;;;;;;;;;;15.90;99.70;;;;;;5013667;28;20409;-25
2022/10/02 10:03:48;;;;;;;;;;;15.80;99.90;;;;;;5013690;28;19905;-25
2022/10/02 10:06:19;;;;;;;;;;;15.80;99.70;;;;;;5013567;28;20366;-25
2022/10/02 10:08:54;;;;;;;;;;;15.80;99.80;;;;;;5012361;28;19906;-24
2022/10/02 10:11:46;;;;;;;;;;;15.80;99.70;;;;;;5013625;28;19916;-24
2022/10/02 10:14:30;;;;;;;;;;;15.80;99.80;;;;;;5013857;28;19905;-24
2022/10/02 10:17:04;;;;;;;;;;;15.80;99.90;;;;;;5013499;28;19960;-24
2022/10/02 10:19:32;;;;;;;;;;;15.80;99.90;;;;;;5013305;28;19909;-24
2022/10/02 10:21:58;;;;;;;;;;;15.80;99.90;;;;;;5013304;28;19905;-24
2022/10/02 10:24:38;;;;;;;;;;;15.80;99.90;;;;;;5013346;28;19964;-24
2022/10/02 10:27:10;;;;;;;;;;;15.80;99.90;;;;;;5013240;28;19909;-24
2022/10/02 10:29:41;;;;;;;;;;;15.90;99.90;;;;;;5013186;28;19959;-24
2022/10/02 10:32:27;;;;;;;;;;;15.90;99.90;;;;;;5013076;28;20359;-25
2022/10/02 10:35:16;;;;;;;;;;;15.90;99.90;;;;;;5009010;28;20378;-25
2022/10/02 10:40:34;;;;;;;;;;;15.90;99.90;;;;;;5013144;28;19917;-24
2022/10/02 10:43:19;;;;;;;;;;;15.90;99.90;;;;;;5013076;28;19952;-25
2022/10/02 10:45:53;;;;;;;;;;;15.90;99.90;;;;;;5012931;28;19932;-24
2022/10/02 10:48:43;;;;;;;;;;;15.90;99.90;;;;;;5013086;28;19905;-24
2022/10/02 10:51:29;;;;;;;;;;;16.00;99.90;;;;;;5009910;28;19906;-24
2022/10/02 10:54:13;;;;;;;;;;;16.10;99.90;;;;;;5018841;28;19940;-24
2022/10/02 10:56:46;;;;;;;;;;;16.10;99.90;;;;;;5016481;28;19921;-24
2022/10/02 10:59:18;;;;;;;;;;;16.10;99.90;;;;;;5013321;28;19909;-24
2022/10/02 11:01:49;;;;;;;;;;;16.10;99.90;;;;;;5013185;28;19915;-24
2022/10/02 11:04:41;;;;;;;;;;;16.00;99.90;;;;;;5013314;28;20367;-24
2022/10/02 11:07:33;;;;;;;;;;;16.00;99.90;;;;;;5011434;28;19924;-24
2022/10/02 11:10:22;;;;;;;;;;;16.00;99.90;;;;;;5012427;28;20294;-25
2022/10/02 11:12:56;;;;;;;;;;;16.10;99.90;;;;;;5009547;28;19905;-24
2022/10/02 11:15:39;;;;;;;;;;;16.00;99.90;;;;;;5012573;28;19964;-24
2022/10/02 11:18:17;;;;;;;;;;;16.00;99.90;;;;;;5012398;28;19906;-24
2022/10/02 11:20:52;;;;;;;;;;;16.10;99.90;;;;;;5012151;28;20071;-25
2022/10/02 11:23:36;;;;;;;;;;;16.10;99.90;;;;;;5012291;28;20278;-24
2022/10/02 11:26:05;;;;;;;;;;;16.10;99.90;;;;;;5012247;28;20359;-24
2022/10/02 11:28:50;;;;;;;;;;;16.10;99.90;;;;;;5012301;28;20351;-24
2022/10/02 11:31:16;;;;;;;;;;;16.10;99.90;;;;;;5012315;28;19906;-25
2022/10/02 11:34:00;;;;;;;;;;;16.10;99.90;;;;;;5012230;28;19928;-24
2022/10/02 11:36:44;;;;;;;;;;;16.10;99.90;;;;;;5012052;28;19905;-25
2022/10/02 11:39:28;;;;;;;;;;;16.10;99.90;;;;;;5011941;28;20358;-24
2022/10/02 11:42:12;;;;;;;;;;;16.10;99.90;;;;;;5012195;28;19913;-25
2022/10/02 11:44:44;;;;;;;;;;;16.10;99.90;;;;;;5010768;28;20012;-25
2022/10/02 11:47:32;;;;;;;;;;;16.10;99.90;;;;;;5011968;28;19916;-25
2022/10/02 11:50:16;;;;;;;;;;;16.10;99.90;;;;;;5012207;28;19987;-25
2022/10/02 11:52:57;;;;;;;;;;;16.10;99.90;;;;;;5012004;28;20363;-25
2022/10/02 11:55:31;;;;;;;;;;;16.00;99.90;;;;;;5011801;28;19905;-25
2022/10/02 11:58:15;;;;;;;;;;;16.00;99.90;;;;;;5011876;28;20304;-25
2022/10/02 12:00:44;;;;;;;;;;;16.10;99.90;;;;;;5011710;28;19909;-25
2022/10/02 12:03:10;;;;;;;;;;;16.10;99.90;;;;;;5011972;28;19913;-25
2022/10/02 12:05:54;;;;;;;;;;;16.00;99.90;;;;;;5013864;28;20000;-25
2022/10/02 12:08:40;;;;;;;;;;;16.00;99.90;;;;;;5015861;28;20335;-25
2022/10/02 12:11:11;;;;;;;;;;;16.00;99.90;;;;;;5016138;28;19909;-24
2022/10/02 12:13:45;;;;;;;;;;;16.00;99.90;;;;;;5016019;28;19960;-25
2022/10/02 12:16:18;;;;;;;;;;;15.90;99.90;;;;;;5015495;28;20370;-25
2022/10/02 12:18:49;;;;;;;;;;;15.90;99.90;;;;;;5015646;28;19905;-25
2022/10/02 12:27:09;;;;;;;;;;;15.90;99.90;;;;;;5015965;28;20012;-24
2022/10/02 12:29:44;;;;;;;;;;;15.80;99.90;;;;;;5014259;28;19906;-24
2022/10/02 12:32:12;;;;;;;;;;;15.80;99.90;;;;;;5015559;28;19909;-24
2022/10/02 12:34:49;;;;;;;;;;;15.80;99.90;;;;;;5015505;28;20351;-25
2022/10/02 12:37:21;;;;;;;;;;;15.80;99.90;;;;;;5013905;28;20314;-25
2022/10/02 12:39:47;;;;;;;;;;;15.80;99.90;;;;;;5015043;28;20299;-24
2022/10/02 12:42:35;;;;;;;;;;;15.80;99.90;;;;;;5015324;28;19916;-24
2022/10/02 12:45:04;;;;;;;;;;;15.80;99.90;;;;;;5005215;28;19906;-25
2022/10/02 12:47:29;;;;;;;;;;;15.80;99.90;;;;;;5015140;28;19909;-24
2022/10/02 12:50:07;;;;;;;;;;;15.80;99.90;;;;;;5014931;28;20256;-24
2022/10/02 12:52:46;;;;;;;;;;;15.80;99.90;;;;;;5015078;28;19909;-24
2022/10/02 12:55:18;;;;;;;;;;;15.80;99.90;;;;;;5014879;28;19937;-24
2022/10/02 12:57:54;;;;;;;;;;;15.80;99.90;;;;;;5014820;28;19909;-24
2022/10/02 13:00:38;;;;;;;;;;;15.80;99.90;;;;;;5014585;28;19909;-24
2022/10/02 13:03:16;;;;;;;;;;;15.80;99.90;;;;;;5014861;28;20355;-25
2022/10/02 13:06:02;;;;;;;;;;;15.80;99.90;;;;;;5014665;28;19995;-24
2022/10/02 13:08:36;;;;;;;;;;;15.80;99.90;;;;;;5014759;28;19917;-25
2022/10/02 13:11:24;;;;;;;;;;;15.80;99.90;;;;;;5014672;28;19932;-25
2022/10/02 13:13:56;;;;;;;;;;;15.80;99.90;;;;;;5014780;28;19906;-25
2022/10/02 13:16:27;;;;;;;;;;;15.80;99.90;;;;;;5013624;28;20294;-25
2022/10/02 13:19:02;;;;;;;;;;;15.80;99.90;;;;;;5014482;28;20000;-24
2022/10/02 13:21:34;;;;;;;;;;;15.80;99.90;;;;;;5013068;28;20278;-25
2022/10/02 13:24:18;;;;;;;;;;;15.80;99.90;;;;;;5014591;28;19995;-24
2022/10/02 13:27:05;;;;;;;;;;;15.80;99.90;;;;;;5014531;28;20286;-24
2022/10/02 13:29:41;;;;;;;;;;;15.80;99.90;;;;;;5014322;28;20552;-24
2022/10/02 13:32:10;;;;;;;;;;;15.80;99.90;;;;;;5014327;28;19912;-24
2022/10/02 13:34:47;;;;;;;;;;;15.80;99.90;;;;;;5014229;28;19906;-24
2022/10/02 13:37:16;;;;;;;;;;;15.80;99.90;;;;;;5014149;28;19932;-24
2022/10/02 13:39:51;;;;;;;;;;;15.80;99.90;;;;;;5014131;28;19917;-25
2022/10/02 13:42:17;;;;;;;;;;;15.80;99.90;;;;;;5014141;28;20374;-24
2022/10/02 13:44:42;;;;;;;;;;;15.80;99.90;;;;;;5012832;28;19916;-24
2022/10/02 13:47:08;;;;;;;;;;;15.90;99.90;;;;;;5014088;28;19906;-24
2022/10/02 13:49:52;;;;;;;;;;;15.80;99.90;;;;;;5013904;28;20335;-24
2022/10/02 13:52:18;;;;;;;;;;;15.90;99.90;;;;;;5014313;28;19920;-24
2022/10/02 13:54:58;;;;;;;;;;;15.80;99.90;;;;;;5014184;28;19996;-24
2022/10/02 13:57:34;;;;;;;;;;;15.80;99.90;;;;;;5014866;28;19912;-24
2022/10/02 14:00:18;;;;;;;;;;;15.80;99.90;;;;;;5021182;28;19909;-25
2022/10/02 14:02:44;;;;;;;;;;;15.80;99.90;;;;;;5017588;28;19905;-25
2022/10/02 14:05:27;;;;;;;;;;;15.80;99.90;;;;;;5014138;28;19987;-25
2022/10/02 14:08:02;;;;;;;;;;;15.80;99.90;;;;;;5012949;28;19916;-25
2022/10/02 14:10:28;;;;;;;;;;;15.80;99.90;;;;;;5013982;28;19905;-24
2022/10/02 14:12:56;;;;;;;;;;;15.80;99.90;;;;;;5013925;28;19913;-24
2022/10/02 14:15:22;;;;;;;;;;;15.80;99.90;;;;;;5013762;28;19909;-25
2022/10/02 14:18:06;;;;;;;;;;;15.80;99.90;;;;;;5013747;28;19905;-24
2022/10/02 14:20:49;;;;;;;;;;;15.80;99.90;;;;;;5013430;28;19909;-25
2022/10/02 14:23:28;;;;;;;;;;;15.80;99.90;;;;;;5013708;28;19905;-25
2022/10/02 14:25:56;;;;;;;;;;;15.80;99.90;;;;;;5013298;28;19963;-24
2022/10/02 14:28:33;;;;;;;;;;;15.80;99.90;;;;;;5013068;28;19950;-24
2022/10/02 14:31:17;;;;;;;;;;;15.80;99.90;;;;;;5013245;28;19906;-25
2022/10/02 14:33:42;;;;;;;;;;;15.80;99.90;;;;;;5013043;28;19913;-25
2022/10/02 14:36:08;;;;;;;;;;;15.90;99.90;;;;;;5013232;28;19905;-24
2022/10/02 14:38:51;;;;;;;;;;;15.90;99.90;;;;;;5013014;28;20310;-25
2022/10/02 14:41:20;;;;;;;;;;;15.90;99.90;;;;;;5012870;28;20009;-24
2022/10/02 14:43:45;;;;;;;;;;;15.80;99.90;;;;;;5012981;28;19906;-25
2022/10/02 14:46:17;;;;;;;;;;;15.80;99.90;;;;;;5012833;28;19956;-24
2022/10/02 14:48:48;;;;;;;;;;;15.90;99.90;;;;;;5012862;28;19909;-24
2022/10/02 14:51:17;;;;;;;;;;;15.90;99.90;;;;;;5012735;28;20310;-25
2022/10/02 14:54:01;;;;;;;;;;;15.90;99.90;;;;;;5012915;28;20402;-25
2022/10/02 14:56:41;;;;;;;;;;;15.90;99.90;;;;;;5012534;28;20329;-25
2022/10/02 14:59:09;;;;;;;;;;;15.90;99.90;;;;;;5012761;28;19909;-25
2022/10/02 15:01:50;;;;;;;;;;;15.90;99.90;;;;;;5012629;28;19928;-25
2022/10/02 15:04:22;;;;;;;;;;;15.90;99.90;;;;;;5012729;28;20397;-25
2022/10/02 15:06:56;;;;;;;;;;;15.90;99.90;;;;;;5012385;28;20375;-25